Campbellton, TX (78008)

4:03 AM CDT on May 26, 2017 (GMT -0500)
MUR198 | | Change Station
Active Advisory: Heat Advisory

Elev 301 ft 28.86 °N, 98.35 °W | Updated 18 days ago

Overcast
Overcast
71.0 °F
Feels Like 71.0 °F
N
-
Wind Variable Wind from North

Today
High -- | Low -- °F
--% Chance of Precip.
Yesterday
High -- | Low -- °F
Precip. -- in
Pressure 29.78 in
Visibility 10.0 miles
Clouds Overcast 1700 ft
Dew Point Not available.
Humidity Not available.
Rainfall 0.00 in
Snow Depth Not available.
6:36 AM 8:23 PM
New Moon, 0% visible
METAR KPEZ 260855Z AUTO 16004KT 10SM OVC017 25/22 A2978 RMK AO2 T02510222
Pressure 29.78 in
Visibility 10.0 miles
Clouds Overcast 1700 ft
Dew Point Not available.
Humidity Not available.
Rainfall 0.00 in
Snow Depth Not available.
6:36 AM 8:23 PM
New Moon, 0% visible
METAR KPEZ 260855Z AUTO 16004KT 10SM OVC017 25/22 A2978 RMK AO2 T02510222

Get Your Daily Forecast Email!

Thanks for signing up!

Be on the lookout for a verification email in your inbox.

You'll start receiving severe weather alerts in your inbox..

×

10-Day Weather Forecast

Almanac

Astronomy

May. 26, 2017 Rise Set
Actual Time
Civil Twilight
Nautical Twilight
Astronomical Twilight
Moon
Length of Visible Light
Length of Day
Tomorrow will be .
, % of the Moon is Illuminated

Today's Extremes

State Highs State Lows

Community

WunderPhotos

Category 6

Welcome to Category 6. This is the collective home for Weather Underground's featured writeups by Dr. Jeff Masters (right), Bob Henson (left), Chris Burt, and other regular contributors.

Nearby

Air Quality

  Air Quality AQ Index Pollutant
Not available.

Snow Depth

Station Depth Elevation

Earthquake Activity

City Distance Mag. Time & Date
Minimum magnitude displayed is 2.5.

Coastal Water Temperatures

Place Temperature

Stations

Nearby Weather Stations

Station Location Temp. Windchill Dew Point Humidity Wind Precip. Elev Updated Type
                   

Watches & Warnings

Heat Advisory
Issued: 3:57 AM CDT May. 26, 2017 – National Weather Service

... Heat advisory in effect from 1 PM this afternoon to 7 PM CDT
this evening...

The National Weather Service in Austin/San Antonio has issued a
heat advisory, which is in effect from 1 PM this afternoon to
7 PM CDT this evening.

* Temperature... 97 to 103 degrees with heat index values in the
108-112 range.

* Impacts... hot temperatures and a moist atmosphere will create
elevated heat index values which will danger individuals with
prolonged exposure to the heat.

Precautionary/preparedness actions...

A heat advisory means that a period of hot temperatures is
expected. The combination of hot temperatures and high humidity
will combine to create a situation in which heat illnesses are
possible. Drink plenty of fluids... stay in an air-conditioned
room... stay out of the sun... and check up on relatives and
neighbors.